createdAt,value
2022-11-30T00:00:08.313Z,16.17
2022-11-30T00:02:14.316Z,15.75
2022-11-30T00:06:23.245Z,13.13
2022-11-30T00:08:29.402Z,15.10
2022-11-30T00:10:31.529Z,15.77
2022-11-30T00:12:34.391Z,16.92
2022-11-30T00:14:36.714Z,15.77
2022-11-30T00:18:41.095Z,15.82
2022-11-30T00:20:43.306Z,15.05
2022-11-30T00:22:45.526Z,17.90
2022-11-30T00:24:47.863Z,15.73
2022-11-30T00:26:50.261Z,15.30
2022-11-30T00:28:52.682Z,15.90
2022-11-30T00:33:03.150Z,18.08
2022-11-30T00:35:05.474Z,16.40
2022-11-30T00:37:07.673Z,17.35
2022-11-30T00:39:09.899Z,18.00
2022-11-30T00:41:12.841Z,16.88
2022-11-30T00:43:15.142Z,18.10
2022-11-30T00:45:17.368Z,17.90
2022-11-30T00:49:21.643Z,17.20
2022-11-30T00:53:25.739Z,17.52
2022-11-30T00:57:33.038Z,18.80
2022-11-30T00:59:35.349Z,16.33
2022-11-30T01:03:39.515Z,16.40
2022-11-30T01:05:43.353Z,16.60
2022-11-30T01:07:45.627Z,16.63
2022-11-30T01:11:49.957Z,15.68
2022-11-30T01:13:52.547Z,16.60
2022-11-30T01:15:54.679Z,16.25
2022-11-30T01:17:58.832Z,18.45
2022-11-30T01:20:01.342Z,17.38
2022-11-30T01:22:03.558Z,16.88
2022-11-30T01:24:06.153Z,16.90
2022-11-30T01:26:09.290Z,14.93
2022-11-30T01:28:11.506Z,15.52
2022-11-30T01:32:15.620Z,15.85
2022-11-30T01:36:26.611Z,14.65
2022-11-30T01:38:35.329Z,16.67
2022-11-30T01:40:37.498Z,15.18
2022-11-30T01:42:46.421Z,14.23
2022-11-30T01:44:52.255Z,14.65
2022-11-30T01:46:59.938Z,14.88
2022-11-30T01:49:16.196Z,15.82
2022-11-30T01:51:18.255Z,17.05
2022-11-30T01:55:37.978Z,16.50
2022-11-30T01:57:45.022Z,16.65
2022-11-30T01:59:50.891Z,17.15
2022-11-30T02:01:55.040Z,16.23
2022-11-30T02:04:03.903Z,16.02
2022-11-30T02:06:06.439Z,15.73
2022-11-30T02:08:12.114Z,15.25
2022-11-30T02:10:22.583Z,17.42
2022-11-30T02:12:34.267Z,16.38
2022-11-30T02:14:46.503Z,16.90
2022-11-30T02:17:02.303Z,16.70
2022-11-30T02:19:30.721Z,16.58
2022-11-30T02:21:44.063Z,17.90
2022-11-30T02:23:58.330Z,17.13
2022-11-30T02:26:27.814Z,16.58
2022-11-30T02:28:32.423Z,16.90
2022-11-30T02:30:40.957Z,17.40
2022-11-30T02:32:49.199Z,17.52
2022-11-30T02:34:52.925Z,18.55
2022-11-30T02:36:56.395Z,17.20
2022-11-30T02:38:58.775Z,17.50
2022-11-30T02:41:00.904Z,16.13
2022-11-30T02:45:08.250Z,15.23
2022-11-30T02:47:18.849Z,15.68
2022-11-30T02:49:30.907Z,15.80
2022-11-30T02:51:36.410Z,16.98
2022-11-30T02:53:38.904Z,15.57
2022-11-30T02:55:41.311Z,17.67
2022-11-30T02:59:45.759Z,16.27
2022-11-30T03:01:51.809Z,16.92
2022-11-30T03:03:53.959Z,18.40
2022-11-30T03:07:58.215Z,16.45
2022-11-30T03:12:02.536Z,14.07
2022-11-30T03:14:04.544Z,15.43
2022-11-30T03:18:14.342Z,15.57
2022-11-30T03:20:16.647Z,16.15
2022-11-30T03:22:18.784Z,15.85
2022-11-30T03:24:20.946Z,16.77
2022-11-30T03:28:25.531Z,14.45
2022-11-30T03:30:27.931Z,16.35
2022-11-30T03:32:31.216Z,15.73
2022-11-30T03:34:33.836Z,15.85
2022-11-30T03:36:36.405Z,17.77
2022-11-30T03:38:38.756Z,16.83
2022-11-30T03:40:41.048Z,15.98
2022-11-30T03:42:43.268Z,15.40
2022-11-30T03:46:47.993Z,18.92
2022-11-30T03:50:52.273Z,13.38
2022-11-30T03:52:54.954Z,16.65
2022-11-30T03:56:58.926Z,15.98
2022-11-30T03:59:01.069Z,16.70
2022-11-30T04:01:06.663Z,16.83
2022-11-30T04:03:08.824Z,17.48
2022-11-30T04:09:15.628Z,17.95
2022-11-30T04:13:21.663Z,16.80
2022-11-30T04:15:24.396Z,18.45
2022-11-30T04:17:26.354Z,18.42
2022-11-30T04:19:28.465Z,19.02
2022-11-30T04:21:30.973Z,18.17
2022-11-30T04:23:36.343Z,21.20
2022-11-30T04:25:39.663Z,16.45
2022-11-30T04:27:41.835Z,18.00
2022-11-30T04:31:46.098Z,16.42
2022-11-30T04:33:48.148Z,17.95
2022-11-30T04:35:54.794Z,17.83
2022-11-30T04:37:56.880Z,18.92
2022-11-30T04:42:01.029Z,13.32
2022-11-30T04:46:06.335Z,14.82
2022-11-30T04:48:08.726Z,18.05
2022-11-30T04:52:13.632Z,17.92
2022-11-30T04:54:15.803Z,18.08
2022-11-30T04:58:19.972Z,16.77
2022-11-30T05:00:23.065Z,17.35
2022-11-30T05:02:25.157Z,19.55
2022-11-30T05:06:29.432Z,18.13
2022-11-30T05:10:34.107Z,14.02
2022-11-30T05:12:36.635Z,20.88
2022-11-30T05:14:38.776Z,21.35
2022-11-30T05:16:40.964Z,17.80
2022-11-30T05:18:43.058Z,18.60
2022-11-30T05:22:51.286Z,18.42
2022-11-30T05:24:53.415Z,17.63
2022-11-30T05:26:55.479Z,19.58
2022-11-30T05:28:57.536Z,18.58
2022-11-30T05:31:06.405Z,21.13
2022-11-30T05:33:09.229Z,17.85
2022-11-30T05:35:11.657Z,18.80
2022-11-30T05:37:13.730Z,17.65
2022-11-30T05:39:15.829Z,18.25
2022-11-30T05:41:20.581Z,18.67
2022-11-30T05:45:27.759Z,17.58
2022-11-30T05:47:30.009Z,20.20
2022-11-30T05:49:32.194Z,17.08
2022-11-30T05:53:36.812Z,18.05
2022-11-30T05:55:39.014Z,16.83
2022-11-30T06:02:28.437Z,18.52
2022-11-30T06:04:31.062Z,21.33
2022-11-30T06:06:33.667Z,16.67
2022-11-30T06:08:35.938Z,21.60
2022-11-30T06:12:40.186Z,19.58
2022-11-30T06:14:42.811Z,18.90
2022-11-30T06:16:45.098Z,17.23
2022-11-30T06:18:47.409Z,19.58
2022-11-30T06:20:49.547Z,18.58
2022-11-30T06:22:52.138Z,20.17
2022-11-30T06:24:54.344Z,18.33
2022-11-30T06:26:56.420Z,18.80
2022-11-30T06:28:58.486Z,20.73
2022-11-30T06:33:03.820Z,19.08
2022-11-30T06:35:06.346Z,18.85
2022-11-30T06:37:08.801Z,18.88
2022-11-30T06:39:12.913Z,17.70
2022-11-30T06:41:15.086Z,17.35
2022-11-30T06:43:17.238Z,20.88
2022-11-30T06:47:21.501Z,16.08
2022-11-30T06:51:25.878Z,15.15
2022-11-30T06:53:28.038Z,18.73
2022-11-30T06:56:29.303Z,19.48
2022-11-30T07:00:34.200Z,17.45
2022-11-30T07:02:36.825Z,18.10
2022-11-30T07:04:39.693Z,18.98
2022-11-30T07:06:41.754Z,18.02
2022-11-30T07:08:44.441Z,20.00
2022-11-30T07:10:47.639Z,22.52
2022-11-30T07:12:50.492Z,18.27
2022-11-30T07:14:55.689Z,17.50
2022-11-30T07:16:58.575Z,20.75
2022-11-30T07:19:00.718Z,19.20
2022-11-30T07:21:04.899Z,18.38
2022-11-30T07:23:26.294Z,18.38
2022-11-30T07:25:47.228Z,18.40
2022-11-30T07:27:49.761Z,18.92
2022-11-30T07:29:52.653Z,19.38
2022-11-30T07:31:54.988Z,19.40
2022-11-30T07:35:59.996Z,17.58
2022-11-30T07:38:06.725Z,16.95
2022-11-30T07:40:12.052Z,18.50
2022-11-30T07:42:17.180Z,19.30
2022-11-30T07:44:19.318Z,19.05
2022-11-30T07:46:21.551Z,17.65
2022-11-30T07:50:25.938Z,14.88
2022-11-30T07:52:29.949Z,19.73
2022-11-30T07:54:32.073Z,19.80
2022-11-30T07:56:34.282Z,20.63
2022-11-30T08:00:41.912Z,18.10
2022-11-30T08:02:44.012Z,19.85
2022-11-30T08:04:46.824Z,19.17
2022-11-30T08:06:49.147Z,18.15
2022-11-30T08:08:54.108Z,19.52
2022-11-30T08:11:00.079Z,21.17
2022-11-30T08:13:02.196Z,22.20
2022-11-30T08:17:22.967Z,22.40
2022-11-30T08:19:25.112Z,21.90
2022-11-30T08:21:27.207Z,23.42
2022-11-30T08:25:35.828Z,21.73
2022-11-30T08:27:37.980Z,23.13
2022-11-30T08:29:40.006Z,22.65
2022-11-30T08:33:44.744Z,22.13
2022-11-30T08:35:46.964Z,21.65
2022-11-30T08:37:49.088Z,24.63
2022-11-30T08:41:53.866Z,24.27
2022-11-30T08:43:55.928Z,22.50
2022-11-30T08:45:58.070Z,25.55
2022-11-30T08:50:02.689Z,27.58
2022-11-30T08:54:22.353Z,24.05
2022-11-30T08:56:24.926Z,24.70
2022-11-30T08:58:32.583Z,23.83
2022-11-30T09:00:34.759Z,23.40
2022-11-30T09:02:37.697Z,23.75
2022-11-30T09:04:39.878Z,22.85
2022-11-30T09:06:42.140Z,24.00
2022-11-30T09:10:47.821Z,22.63
2022-11-30T09:12:49.944Z,23.13
2022-11-30T09:14:57.661Z,22.27
2022-11-30T09:17:00.474Z,23.38
2022-11-30T09:19:02.582Z,23.02
2022-11-30T09:21:09.055Z,21.92
2022-11-30T09:23:20.092Z,24.38
2022-11-30T09:25:23.300Z,22.67
2022-11-30T09:27:31.403Z,23.70
2022-11-30T09:29:33.567Z,22.30
2022-11-30T09:31:35.935Z,25.75
2022-11-30T09:33:38.532Z,24.38
2022-11-30T09:35:40.780Z,24.45
2022-11-30T09:37:43.160Z,22.02
2022-11-30T09:39:45.191Z,23.52
2022-11-30T09:41:56.579Z,23.38
2022-11-30T09:44:17.193Z,24.58
2022-11-30T09:46:30.847Z,23.52
2022-11-30T09:49:10.372Z,22.05
2022-11-30T09:51:19.059Z,22.10
2022-11-30T09:53:43.499Z,24.58
2022-11-30T09:55:46.022Z,21.80
2022-11-30T09:58:02.409Z,25.13
2022-11-30T10:00:15.187Z,21.15
2022-11-30T10:02:18.461Z,20.67
2022-11-30T10:04:25.943Z,24.25
2022-11-30T10:06:33.053Z,22.10
2022-11-30T10:09:09.626Z,23.65
2022-11-30T10:11:14.540Z,22.38
2022-11-30T10:13:44.613Z,22.02
2022-11-30T10:16:10.052Z,21.17
2022-11-30T10:18:23.599Z,22.80
2022-11-30T10:20:44.374Z,22.65
2022-11-30T10:22:56.218Z,22.15
2022-11-30T10:25:17.416Z,19.90
2022-11-30T10:27:34.382Z,21.90
2022-11-30T10:29:41.927Z,21.05
2022-11-30T10:31:45.033Z,22.52
2022-11-30T10:33:50.284Z,23.83
2022-11-30T10:36:00.481Z,22.23
2022-11-30T10:38:12.787Z,25.20
2022-11-30T10:40:49.851Z,23.55
2022-11-30T10:43:20.756Z,23.67
2022-11-30T10:45:24.616Z,24.25
2022-11-30T10:47:36.963Z,23.58
2022-11-30T10:49:45.612Z,24.55
2022-11-30T10:51:53.947Z,23.35
2022-11-30T10:53:58.145Z,22.67
2022-11-30T10:56:12.546Z,21.88
2022-11-30T10:58:32.032Z,20.75
2022-11-30T11:00:34.176Z,22.40
2022-11-30T11:02:42.243Z,23.23
2022-11-30T11:04:44.363Z,23.83
2022-11-30T11:06:53.788Z,26.25
2022-11-30T11:08:56.201Z,25.92
2022-11-30T11:10:58.227Z,26.55
2022-11-30T11:13:01.006Z,25.17
2022-11-30T11:15:18.455Z,26.45
2022-11-30T11:17:23.226Z,26.60
2022-11-30T11:19:33.967Z,24.85
2022-11-30T11:21:36.816Z,26.95
2022-11-30T11:23:41.958Z,26.10
2022-11-30T11:25:44.246Z,29.20
2022-11-30T11:27:53.383Z,28.25
2022-11-30T11:30:08.092Z,26.30
2022-11-30T11:32:25.106Z,27.90
2022-11-30T11:34:33.002Z,25.52
2022-11-30T11:36:37.110Z,27.88
2022-11-30T11:38:48.424Z,26.05
2022-11-30T11:41:03.143Z,26.45
2022-11-30T11:43:17.007Z,27.30
2022-11-30T11:45:39.413Z,28.17
2022-11-30T11:47:45.238Z,27.23
2022-11-30T11:49:49.777Z,26.35
2022-11-30T11:52:04.930Z,27.23
2022-11-30T11:54:26.177Z,24.83
2022-11-30T11:56:40.100Z,25.60
2022-11-30T11:59:04.102Z,26.80
2022-11-30T12:01:38.527Z,25.02
2022-11-30T12:03:48.401Z,22.95
2022-11-30T12:05:57.187Z,24.85
2022-11-30T12:08:14.862Z,22.55
2022-11-30T12:12:55.108Z,23.35
2022-11-30T12:14:58.735Z,24.92
2022-11-30T12:17:10.220Z,22.58
2022-11-30T12:19:19.633Z,21.83
2022-11-30T12:21:40.389Z,21.05
2022-11-30T12:24:04.896Z,20.85
2022-11-30T12:26:13.107Z,20.33
2022-11-30T12:28:24.286Z,21.00
2022-11-30T12:31:11.818Z,22.17
2022-11-30T12:33:29.770Z,23.35
2022-11-30T12:35:40.015Z,22.92
2022-11-30T12:37:48.101Z,21.10
2022-11-30T12:39:57.454Z,21.15
2022-11-30T12:42:07.139Z,21.10
2022-11-30T12:44:29.465Z,20.25
2022-11-30T12:46:43.847Z,20.23
2022-11-30T12:48:48.993Z,20.38
2022-11-30T12:50:51.564Z,20.10
2022-11-30T12:53:17.205Z,19.50
2022-11-30T12:55:37.013Z,21.48
2022-11-30T12:57:51.752Z,20.10
2022-11-30T13:00:16.227Z,19.80
2022-11-30T13:02:36.597Z,21.65
2022-11-30T13:04:42.709Z,21.35
2022-11-30T13:06:54.659Z,22.38
2022-11-30T13:09:26.253Z,23.52
2022-11-30T13:11:35.362Z,23.20
2022-11-30T13:13:42.221Z,25.80
2022-11-30T13:15:46.256Z,26.88
2022-11-30T13:17:52.577Z,26.25
2022-11-30T13:20:08.650Z,26.38
2022-11-30T13:22:19.518Z,28.90
2022-11-30T13:24:34.935Z,26.30
2022-11-30T13:26:48.971Z,26.70
2022-11-30T13:29:45.012Z,29.63
2022-11-30T13:32:22.239Z,28.27
2022-11-30T13:34:39.831Z,26.33
2022-11-30T13:36:45.598Z,30.13
2022-11-30T13:39:08.099Z,28.60
2022-11-30T13:41:10.420Z,29.13
2022-11-30T13:43:21.192Z,27.58
2022-11-30T13:45:27.860Z,27.70
2022-11-30T13:47:34.847Z,27.40
2022-11-30T13:49:37.314Z,27.85
2022-11-30T13:51:42.218Z,26.27
2022-11-30T13:53:48.028Z,26.33
2022-11-30T13:56:03.843Z,27.02
2022-11-30T14:00:30.246Z,26.27
2022-11-30T14:05:19.870Z,27.48
2022-11-30T14:08:10.307Z,25.20
2022-11-30T14:13:14.437Z,27.80
2022-11-30T14:15:42.040Z,25.38
2022-11-30T14:17:51.453Z,27.40
2022-11-30T14:20:17.207Z,29.35
2022-11-30T14:22:39.398Z,29.80
2022-11-30T14:24:54.557Z,28.98
2022-11-30T14:29:24.962Z,31.70
2022-11-30T14:31:33.769Z,31.98
2022-11-30T14:33:46.286Z,31.55
2022-11-30T14:35:55.503Z,34.47
2022-11-30T14:37:59.914Z,31.35
2022-11-30T14:40:14.311Z,31.83
2022-11-30T14:42:29.438Z,32.83
2022-11-30T14:44:36.757Z,33.88
2022-11-30T14:46:39.753Z,32.67
2022-11-30T14:48:44.138Z,33.92
2022-11-30T14:50:52.039Z,35.70
2022-11-30T14:53:13.178Z,35.05
2022-11-30T14:55:19.332Z,34.33
2022-11-30T14:57:39.022Z,35.88
2022-11-30T14:59:53.439Z,34.22
2022-11-30T15:02:07.163Z,34.40
2022-11-30T15:04:18.043Z,35.63
2022-11-30T15:06:23.656Z,33.60
2022-11-30T15:08:43.527Z,36.22
2022-11-30T15:10:46.916Z,34.28
2022-11-30T15:12:51.246Z,35.53
2022-11-30T15:15:14.312Z,33.78
2022-11-30T15:19:24.950Z,33.58
2022-11-30T15:21:33.839Z,32.05
2022-11-30T15:23:36.201Z,31.15
2022-11-30T15:25:44.109Z,31.77
2022-11-30T15:27:46.712Z,32.58
2022-11-30T15:30:01.112Z,31.38
2022-11-30T15:32:15.909Z,30.90
2022-11-30T15:34:28.931Z,31.48
2022-11-30T15:37:11.817Z,31.67
2022-11-30T15:39:24.678Z,32.65
2022-11-30T15:41:30.070Z,29.95
2022-11-30T15:43:39.630Z,30.65
2022-11-30T15:45:53.665Z,30.15
2022-11-30T15:47:57.957Z,29.08
2022-11-30T15:50:00.346Z,27.58
2022-11-30T15:52:17.437Z,29.15
2022-11-30T15:54:46.689Z,28.92
2022-11-30T15:56:57.602Z,28.40
2022-11-30T15:59:20.873Z,27.63
2022-11-30T16:01:26.770Z,27.77
2022-11-30T16:03:29.317Z,28.15
2022-11-30T16:05:33.515Z,27.95
2022-11-30T16:07:48.192Z,28.38
2022-11-30T16:09:50.493Z,27.60
2022-11-30T16:11:57.488Z,27.83
2022-11-30T16:13:59.786Z,29.58
2022-11-30T16:16:02.144Z,26.98
2022-11-30T16:18:19.198Z,28.38
2022-11-30T16:20:28.914Z,26.92
2022-11-30T16:22:31.508Z,26.20
2022-11-30T16:24:33.653Z,27.40
2022-11-30T16:26:50.449Z,28.65
2022-11-30T16:28:55.625Z,28.65
2022-11-30T16:31:02.313Z,29.67
2022-11-30T16:33:04.961Z,28.25
2022-11-30T16:35:36.254Z,29.05
2022-11-30T16:37:39.727Z,28.27
2022-11-30T16:39:45.475Z,28.65
2022-11-30T16:41:48.406Z,28.83
2022-11-30T16:43:54.010Z,30.92
2022-11-30T16:45:58.410Z,27.58
2022-11-30T16:48:00.528Z,29.55
2022-11-30T16:54:14.112Z,30.48
2022-11-30T16:56:23.325Z,29.25
2022-11-30T16:58:25.751Z,28.27
2022-11-30T17:00:28.501Z,29.20
2022-11-30T17:02:30.665Z,30.38
2022-11-30T17:08:38.694Z,29.08
2022-11-30T17:10:42.552Z,27.95
2022-11-30T17:12:45.321Z,31.35
2022-11-30T17:14:47.982Z,29.83
2022-11-30T17:16:50.805Z,33.30
2022-11-30T17:18:53.235Z,30.13
2022-11-30T17:20:55.755Z,27.77
2022-11-30T17:23:01.310Z,29.75
2022-11-30T17:25:11.706Z,31.25
2022-11-30T17:27:15.571Z,27.58
2022-11-30T17:29:18.567Z,27.90
2022-11-30T17:31:21.915Z,27.83
2022-11-30T17:33:24.375Z,29.08
2022-11-30T17:35:26.577Z,27.80
2022-11-30T17:37:29.444Z,29.83
2022-11-30T17:39:34.477Z,29.55
2022-11-30T17:41:39.692Z,26.77
2022-11-30T17:43:42.311Z,29.10
2022-11-30T17:45:44.877Z,28.02
2022-11-30T17:47:47.457Z,29.63
2022-11-30T17:49:52.890Z,27.67
2022-11-30T17:51:55.791Z,26.63
2022-11-30T17:53:58.545Z,28.60
2022-11-30T17:56:05.720Z,28.10
2022-11-30T17:58:08.436Z,28.70
2022-11-30T18:02:17.887Z,28.67
2022-11-30T18:04:26.095Z,28.98
2022-11-30T18:06:29.658Z,28.73
2022-11-30T18:08:34.897Z,32.45
2022-11-30T18:10:41.033Z,29.63
2022-11-30T18:12:43.678Z,29.45
2022-11-30T18:14:46.014Z,30.05
2022-11-30T18:16:48.524Z,29.10
2022-11-30T18:18:51.748Z,31.10
2022-11-30T18:20:54.763Z,29.25
2022-11-30T18:23:08.067Z,30.77
2022-11-30T18:25:10.558Z,30.58
2022-11-30T18:27:46.738Z,29.70
2022-11-30T18:29:48.890Z,32.17
2022-11-30T18:31:51.469Z,30.55
2022-11-30T18:34:05.415Z,30.55
2022-11-30T18:36:08.075Z,29.00
2022-11-30T18:38:10.258Z,28.95
2022-11-30T18:40:13.530Z,29.25
2022-11-30T18:42:16.493Z,29.30
2022-11-30T18:44:19.473Z,31.00
2022-11-30T18:46:22.464Z,30.20
2022-11-30T18:48:25.421Z,30.05
2022-11-30T18:50:29.447Z,30.80
2022-11-30T18:52:31.621Z,28.85
2022-11-30T18:54:37.061Z,28.63
2022-11-30T18:56:39.548Z,34.97
2022-11-30T18:58:46.691Z,30.60
2022-11-30T19:00:48.975Z,31.08
2022-11-30T19:04:53.383Z,21.67
2022-11-30T19:08:57.971Z,28.05
2022-11-30T19:11:05.800Z,28.88
2022-11-30T19:13:08.037Z,29.80
2022-11-30T19:15:10.546Z,27.00
2022-11-30T19:17:12.781Z,29.13
2022-11-30T19:19:17.614Z,29.35
2022-11-30T19:21:21.685Z,28.90
2022-11-30T19:23:23.983Z,30.02
2022-11-30T19:27:28.046Z,23.10
2022-11-30T19:29:30.274Z,28.92
2022-11-30T19:33:36.146Z,26.85
2022-11-30T19:35:38.821Z,27.77
2022-11-30T19:37:41.120Z,26.35
2022-11-30T19:41:48.318Z,27.05
2022-11-30T19:44:03.107Z,27.67
2022-11-30T19:46:08.149Z,28.83
2022-11-30T19:48:14.234Z,28.17
2022-11-30T19:50:16.879Z,29.50
2022-11-30T19:52:20.473Z,29.00
2022-11-30T19:54:22.980Z,27.52
2022-11-30T19:56:26.609Z,28.85
2022-11-30T19:58:31.227Z,28.42
2022-11-30T20:00:33.483Z,28.83
2022-11-30T20:02:36.450Z,29.13
2022-11-30T20:04:39.371Z,28.98
2022-11-30T20:06:42.144Z,29.65
2022-11-30T20:08:47.501Z,31.08
2022-11-30T20:10:49.616Z,29.95
2022-11-30T20:14:54.998Z,27.50
2022-11-30T20:16:57.663Z,31.42
2022-11-30T20:19:02.905Z,28.15
2022-11-30T20:21:13.517Z,29.02
2022-11-30T20:23:15.793Z,29.40
2022-11-30T20:27:23.867Z,23.92
2022-11-30T20:29:25.966Z,29.90
2022-11-30T20:33:31.105Z,29.45
2022-11-30T20:35:39.078Z,26.30
2022-11-30T20:37:44.277Z,28.30
2022-11-30T20:39:47.289Z,29.60
2022-11-30T20:41:49.704Z,27.90
2022-11-30T20:43:53.239Z,28.58
2022-11-30T20:45:55.421Z,28.33
2022-11-30T20:48:13.368Z,27.85
2022-11-30T20:50:15.427Z,26.67
2022-11-30T20:54:22.681Z,26.98
2022-11-30T20:56:25.291Z,25.30
2022-11-30T20:58:27.727Z,26.52
2022-11-30T21:00:30.179Z,26.67
2022-11-30T21:04:37.231Z,26.27
2022-11-30T21:06:40.633Z,27.65
2022-11-30T21:08:43.112Z,26.27
2022-11-30T21:10:45.981Z,28.05
2022-11-30T21:12:48.631Z,28.20
2022-11-30T21:16:53.029Z,29.00
2022-11-30T21:21:11.591Z,27.55
2022-11-30T21:23:13.915Z,28.75
2022-11-30T21:25:16.003Z,28.13
2022-11-30T21:27:18.188Z,28.23
2022-11-30T21:29:20.466Z,27.90
2022-11-30T21:31:24.148Z,30.67
2022-11-30T21:33:27.998Z,32.30
2022-11-30T21:35:30.268Z,31.38
2022-11-30T21:39:35.791Z,24.88
2022-11-30T21:41:39.750Z,28.88
2022-11-30T21:43:42.419Z,30.15
2022-11-30T21:45:58.323Z,28.02
2022-11-30T21:48:00.522Z,27.10
2022-11-30T21:50:04.864Z,28.88
2022-11-30T21:52:07.642Z,29.08
2022-11-30T21:54:13.091Z,27.90
2022-11-30T21:56:21.422Z,31.85
2022-11-30T21:58:23.638Z,28.67
2022-11-30T22:00:26.308Z,31.42
2022-11-30T22:02:28.561Z,28.60
2022-11-30T22:04:30.684Z,29.70
2022-11-30T22:08:37.064Z,27.45
2022-11-30T22:10:39.127Z,29.80
2022-11-30T22:12:41.286Z,28.55
2022-11-30T22:14:43.377Z,28.33
2022-11-30T22:16:45.794Z,28.83
2022-11-30T22:18:48.590Z,30.15
2022-11-30T22:20:50.618Z,28.17
2022-11-30T22:22:52.832Z,27.00
2022-11-30T22:26:57.888Z,27.60
2022-11-30T22:29:03.720Z,27.88
2022-11-30T22:31:07.910Z,28.67
2022-11-30T22:33:10.057Z,30.20
2022-11-30T22:37:14.182Z,29.05
2022-11-30T22:41:19.679Z,29.48
2022-11-30T22:43:21.786Z,28.15
2022-11-30T22:45:24.067Z,28.83
2022-11-30T22:47:26.188Z,31.33
2022-11-30T22:51:32.461Z,26.30
2022-11-30T22:53:36.269Z,33.83
2022-11-30T22:55:38.477Z,29.45
2022-11-30T22:57:41.007Z,31.05
2022-11-30T22:59:43.613Z,29.83
2022-11-30T23:01:48.073Z,28.75
2022-11-30T23:03:51.850Z,28.85
2022-11-30T23:05:54.875Z,30.77
2022-11-30T23:07:57.012Z,28.70
2022-11-30T23:12:01.066Z,23.40
2022-11-30T23:14:06.243Z,25.85
2022-11-30T23:16:09.884Z,29.20
2022-11-30T23:18:11.977Z,30.00
2022-11-30T23:20:14.220Z,27.92
2022-11-30T23:22:16.461Z,28.65
2022-11-30T23:26:28.711Z,25.73
2022-11-30T23:28:30.831Z,30.08
2022-11-30T23:30:33.601Z,27.83
2022-11-30T23:32:36.131Z,27.60
2022-11-30T23:34:38.361Z,29.77
2022-11-30T23:38:42.584Z,21.33
2022-11-30T23:40:44.635Z,27.17
2022-11-30T23:44:48.497Z,29.42
2022-11-30T23:46:50.852Z,25.33
2022-11-30T23:50:55.238Z,25.58
2022-11-30T23:52:57.244Z,28.10
2022-11-30T23:57:01.234Z,29.75
